SAS434 EKCH-ESGG
Flight info
| Callsign | SAS434 |
|---|---|
| Flight time | 0h 35m |
| Altitude | 20000 |
| Route | VEDAR L997 RISMA |
| Aircraft | A319/M-SDE3FGHIRWY/LB1 |
Departure
| Time | 2026-04-26 17:24 |
|---|---|
| Airport | Copenhagen Kastrup Airport (EKCH) |
Arrival
| Time | 2026-04-26 17:59 |
|---|---|
| Airport | Göteborg Landvetter Airport (ESGG) |
| Time | Latitude | Longitude | Altitude | Speed | Heading |
|---|---|---|---|---|---|
| 2026-04-26 16:58 | 55.62712 | 12.64468 | 24 ft | 0 kts | 102° |
| 2026-04-26 17:12 | 55.62716 | 12.64440 | 24 ft | 4 kts | 108° |
| 2026-04-26 17:12 | 55.62725 | 12.64395 | 25 ft | 4 kts | 104° |
| 2026-04-26 17:13 | 55.62723 | 12.64346 | 24 ft | 4 kts | 2° |
| 2026-04-26 17:13 | 55.62702 | 12.64336 | 24 ft | 4 kts | 21° |
| 2026-04-26 17:13 | 55.62663 | 12.64309 | 27 ft | 4 kts | 21° |
| 2026-04-26 17:14 | 55.62642 | 12.64294 | 28 ft | 2 kts | 25° |
| 2026-04-26 17:14 | 55.62609 | 12.64259 | 25 ft | 4 kts | 33° |
| 2026-04-26 17:14 | 55.62586 | 12.64234 | 26 ft | 4 kts | 31° |
| 2026-04-26 17:15 | 55.62551 | 12.64182 | 27 ft | 3 kts | 72° |
| 2026-04-26 17:15 | 55.62548 | 12.64150 | 27 ft | 4 kts | 115° |
| 2026-04-26 17:15 | 55.62556 | 12.64115 | 27 ft | 4 kts | 129° |
| 2026-04-26 17:16 | 55.62567 | 12.64092 | 25 ft | 0 kts | 123° |
| 2026-04-26 17:18 | 55.62562 | 12.64106 | 26 ft | 3 kts | 123° |
| 2026-04-26 17:18 | 55.62543 | 12.64156 | 25 ft | 8 kts | 123° |
| 2026-04-26 17:18 | 55.62503 | 12.64268 | 24 ft | 14 kts | 123° |
| 2026-04-26 17:19 | 55.62365 | 12.64437 | 24 ft | 12 kts | 191° |
| 2026-04-26 17:19 | 55.62282 | 12.64405 | 23 ft | 12 kts | 190° |
| 2026-04-26 17:19 | 55.62195 | 12.64411 | 21 ft | 13 kts | 169° |
| 2026-04-26 17:20 | 55.62117 | 12.64437 | 23 ft | 10 kts | 170° |
| 2026-04-26 17:20 | 55.62072 | 12.64451 | 24 ft | 9 kts | 169° |
| 2026-04-26 17:20 | 55.61987 | 12.64479 | 24 ft | 11 kts | 169° |
| 2026-04-26 17:20 | 55.61870 | 12.64519 | 24 ft | 21 kts | 169° |
| 2026-04-26 17:21 | 55.61727 | 12.64563 | 25 ft | 20 kts | 174° |
| 2026-04-26 17:21 | 55.61591 | 12.64468 | 24 ft | 23 kts | 213° |
| 2026-04-26 17:21 | 55.61450 | 12.64305 | 26 ft | 26 kts | 213° |
| 2026-04-26 17:21 | 55.61291 | 12.64123 | 26 ft | 29 kts | 213° |
| 2026-04-26 17:22 | 55.61117 | 12.63921 | 26 ft | 32 kts | 213° |
| 2026-04-26 17:22 | 55.60965 | 12.63749 | 24 ft | 22 kts | 212° |
| 2026-04-26 17:22 | 55.60858 | 12.63623 | 24 ft | 11 kts | 212° |
| 2026-04-26 17:22 | 55.60784 | 12.63606 | 25 ft | 12 kts | 151° |
| 2026-04-26 17:23 | 55.60721 | 12.63731 | 25 ft | 14 kts | 130° |
| 2026-04-26 17:23 | 55.60681 | 12.63840 | 29 ft | 7 kts | 98° |
| 2026-04-26 17:23 | 55.60715 | 12.63928 | 28 ft | 15 kts | 40° |
| 2026-04-26 17:23 | 55.60971 | 12.64321 | 24 ft | 83 kts | 40° |
| 2026-04-26 17:24 | 55.61562 | 12.65236 | 24 ft | 141 kts | 41° |
| 2026-04-26 17:24 | 55.62372 | 12.66500 | 374 ft | 156 kts | 39° |
| 2026-04-26 17:24 | 55.63182 | 12.67768 | 1068 ft | 155 kts | 39° |
| 2026-04-26 17:24 | 55.63990 | 12.69024 | 1671 ft | 155 kts | 38° |
| 2026-04-26 17:25 | 55.64839 | 12.70335 | 2021 ft | 172 kts | 37° |
| 2026-04-26 17:25 | 55.65978 | 12.71162 | 2252 ft | 189 kts | 355° |
| 2026-04-26 17:25 | 55.67314 | 12.70494 | 2544 ft | 213 kts | 337° |
| 2026-04-26 17:25 | 55.68845 | 12.69874 | 2993 ft | 240 kts | 349° |
| 2026-04-26 17:26 | 55.70559 | 12.69614 | 3776 ft | 251 kts | 353° |
| 2026-04-26 17:26 | 55.72318 | 12.69474 | 4836 ft | 253 kts | 354° |
| 2026-04-26 17:26 | 55.74082 | 12.69356 | 5897 ft | 255 kts | 354° |
| 2026-04-26 17:26 | 55.75860 | 12.69227 | 6927 ft | 256 kts | 354° |
| 2026-04-26 17:27 | 55.76940 | 12.69139 | 7512 ft | 257 kts | 353° |
| 2026-04-26 17:27 | 55.78735 | 12.68978 | 8471 ft | 259 kts | 353° |
| 2026-04-26 17:27 | 55.80491 | 12.68321 | 9406 ft | 258 kts | 336° |
| 2026-04-26 17:27 | 55.82050 | 12.66745 | 10302 ft | 260 kts | 321° |
| 2026-04-26 17:28 | 55.83483 | 12.64630 | 10750 ft | 279 kts | 320° |
| 2026-04-26 17:28 | 55.85040 | 12.62336 | 10983 ft | 302 kts | 320° |
| 2026-04-26 17:28 | 55.86693 | 12.59893 | 11480 ft | 313 kts | 320° |
| 2026-04-26 17:28 | 55.88383 | 12.57397 | 12177 ft | 317 kts | 320° |
| 2026-04-26 17:29 | 55.90090 | 12.54873 | 12936 ft | 320 kts | 320° |
| 2026-04-26 17:29 | 55.91226 | 12.53193 | 13446 ft | 321 kts | 320° |
| 2026-04-26 17:29 | 55.93516 | 12.49800 | 14353 ft | 325 kts | 320° |
| 2026-04-26 17:29 | 55.95260 | 12.47207 | 15019 ft | 328 kts | 320° |
| 2026-04-26 17:30 | 55.97019 | 12.44593 | 15669 ft | 330 kts | 320° |
| 2026-04-26 17:30 | 55.98792 | 12.41947 | 16307 ft | 333 kts | 319° |
| 2026-04-26 17:30 | 56.00580 | 12.39271 | 16945 ft | 336 kts | 319° |
| 2026-04-26 17:30 | 56.02382 | 12.36570 | 17575 ft | 340 kts | 319° |
| 2026-04-26 17:31 | 56.04201 | 12.33838 | 18201 ft | 343 kts | 319° |
| 2026-04-26 17:31 | 56.06038 | 12.31075 | 18799 ft | 347 kts | 319° |
| 2026-04-26 17:31 | 56.07893 | 12.28284 | 19351 ft | 350 kts | 319° |
| 2026-04-26 17:31 | 56.09884 | 12.25749 | 19906 ft | 354 kts | 329° |
| 2026-04-26 17:32 | 56.12148 | 12.23940 | 20198 ft | 359 kts | 339° |
| 2026-04-26 17:32 | 56.14614 | 12.22976 | 20270 ft | 370 kts | 348° |
| 2026-04-26 17:32 | 56.17186 | 12.22296 | 20275 ft | 375 kts | 348° |
| 2026-04-26 17:32 | 56.19777 | 12.21604 | 20274 ft | 377 kts | 348° |
| 2026-04-26 17:33 | 56.22367 | 12.20905 | 20276 ft | 377 kts | 348° |
| 2026-04-26 17:33 | 56.24964 | 12.20200 | 20292 ft | 377 kts | 347° |
| 2026-04-26 17:33 | 56.27555 | 12.19490 | 20274 ft | 377 kts | 347° |
| 2026-04-26 17:34 | 56.32734 | 12.18060 | 20271 ft | 376 kts | 347° |
| 2026-04-26 17:34 | 56.35322 | 12.17341 | 20271 ft | 376 kts | 347° |
| 2026-04-26 17:34 | 56.37910 | 12.16619 | 20272 ft | 376 kts | 347° |
| 2026-04-26 17:34 | 56.40497 | 12.15897 | 20249 ft | 376 kts | 347° |
| 2026-04-26 17:35 | 56.43095 | 12.15173 | 20253 ft | 377 kts | 347° |
| 2026-04-26 17:35 | 56.45649 | 12.14462 | 20255 ft | 377 kts | 347° |
| 2026-04-26 17:35 | 56.48248 | 12.13739 | 20258 ft | 377 kts | 347° |
| 2026-04-26 17:35 | 56.50838 | 12.13015 | 20261 ft | 377 kts | 347° |
| 2026-04-26 17:36 | 56.53431 | 12.12289 | 20284 ft | 377 kts | 347° |
| 2026-04-26 17:36 | 56.56027 | 12.11562 | 20284 ft | 377 kts | 347° |
| 2026-04-26 17:36 | 56.58626 | 12.10835 | 20280 ft | 377 kts | 347° |
| 2026-04-26 17:36 | 56.61218 | 12.10106 | 20278 ft | 377 kts | 347° |
| 2026-04-26 17:37 | 56.63809 | 12.09374 | 20278 ft | 377 kts | 347° |
| 2026-04-26 17:37 | 56.66401 | 12.08646 | 20276 ft | 377 kts | 347° |
| 2026-04-26 17:37 | 56.68993 | 12.07920 | 20275 ft | 377 kts | 347° |
| 2026-04-26 17:38 | 56.74179 | 12.06465 | 20274 ft | 377 kts | 347° |
| 2026-04-26 17:38 | 56.76773 | 12.05738 | 20274 ft | 377 kts | 347° |
| 2026-04-26 17:38 | 56.79364 | 12.05006 | 20274 ft | 377 kts | 347° |
| 2026-04-26 17:38 | 56.81956 | 12.04263 | 20300 ft | 377 kts | 347° |
| 2026-04-26 17:39 | 56.84542 | 12.03522 | 20296 ft | 377 kts | 347° |
| 2026-04-26 17:39 | 56.87133 | 12.02778 | 20292 ft | 377 kts | 347° |
| 2026-04-26 17:39 | 56.89719 | 12.02043 | 20288 ft | 377 kts | 347° |
| 2026-04-26 17:39 | 56.92303 | 12.01312 | 20187 ft | 372 kts | 347° |
| 2026-04-26 17:40 | 56.94834 | 12.00595 | 19930 ft | 365 kts | 347° |
| 2026-04-26 17:40 | 56.95652 | 12.00363 | 19858 ft | 364 kts | 347° |
| 2026-04-26 17:40 | 56.99829 | 11.99173 | 19456 ft | 361 kts | 347° |
| 2026-04-26 17:40 | 57.02316 | 11.98540 | 19207 ft | 362 kts | 353° |
| 2026-04-26 17:41 | 57.04833 | 11.99114 | 18965 ft | 372 kts | 12° |
| 2026-04-26 17:41 | 57.07184 | 12.01214 | 18733 ft | 379 kts | 25° |
| 2026-04-26 17:41 | 57.09450 | 12.03696 | 18492 ft | 377 kts | 25° |
| 2026-04-26 17:41 | 57.11686 | 12.06162 | 17933 ft | 374 kts | 25° |
| 2026-04-26 17:42 | 57.13877 | 12.08580 | 17358 ft | 370 kts | 25° |
| 2026-04-26 17:42 | 57.16104 | 12.11033 | 16816 ft | 365 kts | 25° |
| 2026-04-26 17:42 | 57.18212 | 12.13364 | 16679 ft | 350 kts | 25° |
| 2026-04-26 17:42 | 57.20252 | 12.15642 | 16544 ft | 336 kts | 25° |
| 2026-04-26 17:43 | 57.22207 | 12.17841 | 16414 ft | 322 kts | 24° |
| 2026-04-26 17:43 | 57.24194 | 12.19374 | 16283 ft | 299 kts | 5° |
| 2026-04-26 17:43 | 57.26175 | 12.19258 | 16159 ft | 277 kts | 340° |
| 2026-04-26 17:43 | 57.27793 | 12.17585 | 16027 ft | 263 kts | 315° |
| 2026-04-26 17:44 | 57.28911 | 12.14988 | 15876 ft | 255 kts | 306° |
| 2026-04-26 17:44 | 57.29910 | 12.12298 | 15606 ft | 253 kts | 305° |
| 2026-04-26 17:44 | 57.30891 | 12.09609 | 15303 ft | 251 kts | 305° |
| 2026-04-26 17:44 | 57.31863 | 12.06929 | 14995 ft | 250 kts | 305° |
| 2026-04-26 17:45 | 57.32828 | 12.04254 | 14677 ft | 250 kts | 305° |
| 2026-04-26 17:45 | 57.33789 | 12.01582 | 14374 ft | 249 kts | 305° |
| 2026-04-26 17:45 | 57.34744 | 11.98920 | 14066 ft | 248 kts | 305° |
| 2026-04-26 17:45 | 57.35750 | 11.96362 | 13776 ft | 244 kts | 316° |
| 2026-04-26 17:46 | 57.37168 | 11.94689 | 13451 ft | 245 kts | 340° |
| 2026-04-26 17:46 | 57.38873 | 11.94346 | 13239 ft | 252 kts | 1° |
| 2026-04-26 17:46 | 57.40627 | 11.94685 | 13027 ft | 254 kts | 1° |
| 2026-04-26 17:46 | 57.42380 | 11.95039 | 12816 ft | 253 kts | 2° |
| 2026-04-26 17:47 | 57.44129 | 11.95397 | 12609 ft | 253 kts | 2° |
| 2026-04-26 17:47 | 57.44720 | 11.95518 | 12538 ft | 252 kts | 2° |
| 2026-04-26 17:47 | 57.47613 | 11.96113 | 12190 ft | 251 kts | 2° |
| 2026-04-26 17:47 | 57.49348 | 11.96462 | 11943 ft | 250 kts | 1° |
| 2026-04-26 17:48 | 57.51075 | 11.96805 | 11686 ft | 249 kts | 2° |
| 2026-04-26 17:48 | 57.52795 | 11.97146 | 11433 ft | 248 kts | 2° |
| 2026-04-26 17:48 | 57.54506 | 11.97579 | 11181 ft | 249 kts | 7° |
| 2026-04-26 17:48 | 57.56177 | 11.98491 | 10931 ft | 252 kts | 16° |
| 2026-04-26 17:49 | 57.57769 | 11.99886 | 10681 ft | 254 kts | 22° |
| 2026-04-26 17:49 | 57.59324 | 12.01416 | 10413 ft | 252 kts | 22° |
| 2026-04-26 17:49 | 57.60872 | 12.02930 | 10130 ft | 251 kts | 22° |
| 2026-04-26 17:49 | 57.62401 | 12.04423 | 9820 ft | 250 kts | 22° |
| 2026-04-26 17:50 | 57.63936 | 12.05923 | 9533 ft | 248 kts | 22° |
| 2026-04-26 17:50 | 57.65464 | 12.07413 | 9229 ft | 247 kts | 22° |
| 2026-04-26 17:50 | 57.66984 | 12.08895 | 8925 ft | 246 kts | 23° |
| 2026-04-26 17:50 | 57.68499 | 12.10375 | 8642 ft | 245 kts | 23° |
| 2026-04-26 17:51 | 57.70009 | 12.11855 | 8378 ft | 244 kts | 23° |
| 2026-04-26 17:51 | 57.71511 | 12.13334 | 8115 ft | 243 kts | 24° |
| 2026-04-26 17:51 | 57.73006 | 12.14810 | 7852 ft | 243 kts | 24° |
| 2026-04-26 17:51 | 57.74497 | 12.16278 | 7599 ft | 242 kts | 24° |
| 2026-04-26 17:52 | 57.75961 | 12.17720 | 7348 ft | 240 kts | 24° |
| 2026-04-26 17:52 | 57.77437 | 12.19176 | 7097 ft | 239 kts | 24° |
| 2026-04-26 17:52 | 57.78906 | 12.20626 | 6943 ft | 239 kts | 24° |
| 2026-04-26 17:52 | 57.80379 | 12.22077 | 6692 ft | 238 kts | 25° |
| 2026-04-26 17:53 | 57.81845 | 12.23526 | 6362 ft | 239 kts | 25° |
| 2026-04-26 17:53 | 57.83308 | 12.24976 | 6233 ft | 236 kts | 25° |
| 2026-04-26 17:53 | 57.84743 | 12.26480 | 6182 ft | 237 kts | 32° |
| 2026-04-26 17:54 | 57.86692 | 12.31447 | 5717 ft | 244 kts | 70° |
| 2026-04-26 17:54 | 57.86938 | 12.34595 | 5273 ft | 246 kts | 88° |
| 2026-04-26 17:54 | 57.86559 | 12.37733 | 4781 ft | 250 kts | 115° |
| 2026-04-26 17:54 | 57.85467 | 12.40211 | 4454 ft | 248 kts | 143° |
| 2026-04-26 17:55 | 57.83885 | 12.41428 | 4114 ft | 246 kts | 173° |
| 2026-04-26 17:55 | 57.82192 | 12.41639 | 3764 ft | 239 kts | 181° |
| 2026-04-26 17:55 | 57.80621 | 12.41078 | 3484 ft | 224 kts | 206° |
| 2026-04-26 17:55 | 57.79252 | 12.39845 | 3191 ft | 214 kts | 210° |
| 2026-04-26 17:56 | 57.77946 | 12.38645 | 2927 ft | 203 kts | 210° |
| 2026-04-26 17:56 | 57.75505 | 12.36407 | 2349 ft | 189 kts | 210° |
| 2026-04-26 17:57 | 57.73289 | 12.34381 | 1859 ft | 163 kts | 210° |
| 2026-04-26 17:57 | 57.72630 | 12.33781 | 1704 ft | 149 kts | 210° |
| 2026-04-26 17:57 | 57.71454 | 12.32704 | 1426 ft | 138 kts | 212° |
| 2026-04-26 17:57 | 57.70606 | 12.31922 | 1224 ft | 134 kts | 212° |
| 2026-04-26 17:58 | 57.68381 | 12.29886 | 734 ft | 133 kts | 211° |
| 2026-04-26 17:59 | 57.66806 | 12.28454 | 513 ft | 100 kts | 205° |
| 2026-04-26 17:59 | 57.66333 | 12.28023 | 510 ft | 50 kts | 205° |
| 2026-04-26 17:59 | 57.66176 | 12.27909 | 509 ft | 14 kts | 169° |
| 2026-04-26 17:59 | 57.66119 | 12.28032 | 508 ft | 10 kts | 117° |
| 2026-04-26 18:00 | 57.66103 | 12.28122 | 509 ft | 7 kts | 97° |
| 2026-04-26 18:00 | 57.66132 | 12.28192 | 509 ft | 4 kts | 28° |
| 2026-04-26 18:00 | 57.66137 | 12.28195 | 509 ft | 0 kts | 23° |
| 2026-04-26 18:01 | 57.66138 | 12.28196 | 509 ft | 1 kts | 23° |
| 2026-04-26 18:01 | 57.66148 | 12.28205 | 510 ft | 3 kts | 24° |
| 2026-04-26 18:01 | 57.66172 | 12.28225 | 510 ft | 5 kts | 25° |
| 2026-04-26 18:01 | 57.66201 | 12.28252 | 510 ft | 1 kts | 26° |
| 2026-04-26 18:02 | 57.66218 | 12.28267 | 510 ft | 4 kts | 26° |
| 2026-04-26 18:02 | 57.66242 | 12.28289 | 510 ft | 7 kts | 26° |
| 2026-04-26 18:02 | 57.66303 | 12.28380 | 511 ft | 10 kts | 71° |
| 2026-04-26 18:02 | 57.66286 | 12.28499 | 515 ft | 8 kts | 117° |
| 2026-04-26 18:03 | 57.66264 | 12.28585 | 516 ft | 8 kts | 115° |
| 2026-04-26 18:03 | 57.66242 | 12.28686 | 516 ft | 9 kts | 100° |
| 2026-04-26 18:03 | 57.66271 | 12.28765 | 516 ft | 7 kts | 28° |
| 2026-04-26 18:03 | 57.66297 | 12.28783 | 516 ft | 2 kts | 6° |
| 2026-04-26 18:04 | 57.66314 | 12.28758 | 516 ft | 4 kts | 305° |
| 2026-04-26 18:04 | 57.66328 | 12.28713 | 516 ft | 3 kts | 296° |
| 2026-04-26 18:05 | 57.66337 | 12.28679 | 516 ft | 0 kts | 295° |